Time;durP1;ratioP1;P1;durP2;ratioP2;P2;SDS_P1;SDS_P2;PMS_P1;PMS_P2;Temp;Humidity;BMP_temperature;BMP_pressure;BME280_temperature;BME280_humidity;BME280_pressure;Samples;Min_cycle;Max_cycle;Signal;HPM_P1;HPM_P2
2022/06/19 00:02:20;;;;;;;25.75;3.65;;;15.50;99.90;;;;;;4988868;28;216175;-73
2022/06/19 00:04:49;;;;;;;17.55;3.17;;;15.50;99.90;;;;;;4987334;28;252456;-71
2022/06/19 00:07:16;;;;;;;17.38;2.70;;;15.50;99.90;;;;;;4974023;28;211472;-72
2022/06/19 00:09:42;;;;;;;17.77;2.55;;;15.50;99.90;;;;;;4988516;28;271504;-71
2022/06/19 00:12:08;;;;;;;18.30;3.03;;;15.50;99.90;;;;;;4948920;28;216027;-70
2022/06/19 00:14:35;;;;;;;15.70;2.85;;;15.50;99.90;;;;;;4983488;28;247192;-72
2022/06/19 00:17:03;;;;;;;16.98;2.50;;;15.50;99.90;;;;;;4938186;28;213295;-71
2022/06/19 00:19:29;;;;;;;17.73;2.90;;;15.50;99.90;;;;;;4995326;28;265883;-71
2022/06/19 00:21:56;;;;;;;14.98;2.65;;;15.50;99.90;;;;;;4935022;28;208266;-71
2022/06/19 00:24:22;;;;;;;18.73;2.92;;;15.50;99.90;;;;;;4978257;28;260270;-71
2022/06/19 00:26:48;;;;;;;17.95;2.70;;;15.50;99.90;;;;;;4948218;28;214420;-71
2022/06/19 00:29:14;;;;;;;19.42;2.60;;;15.50;99.90;;;;;;4980426;28;264242;-71
2022/06/19 00:31:40;;;;;;;17.98;2.72;;;15.50;99.90;;;;;;4939142;28;205875;-70
2022/06/19 00:34:07;;;;;;;14.50;2.42;;;15.50;99.90;;;;;;4986193;28;251544;-71
2022/06/19 00:36:34;;;;;;;13.65;2.25;;;15.50;99.90;;;;;;4934489;28;206766;-71
2022/06/19 00:39:01;;;;;;;14.10;2.17;;;15.50;99.90;;;;;;4993505;28;20050;-71
2022/06/19 00:41:33;;;;;;;13.32;2.10;;;15.50;99.90;;;;;;4949480;28;206121;-71
2022/06/19 00:44:05;;;;;;;15.90;2.10;;;15.40;99.90;;;;;;5011090;28;20325;-71
2022/06/19 00:46:49;;;;;;;13.95;2.00;;;15.40;99.90;;;;;;4949688;28;206374;-71
2022/06/19 00:49:28;;;;;;;15.10;1.90;;;15.40;99.90;;;;;;4988099;28;260185;-71
2022/06/19 00:52:02;;;;;;;13.45;2.20;;;15.30;99.90;;;;;;4972628;28;207866;-71
2022/06/19 00:54:34;;;;;;;12.48;1.75;;;15.30;99.90;;;;;;4986510;28;267082;-71
2022/06/19 00:57:00;;;;;;;14.80;2.00;;;15.20;99.90;;;;;;4947913;28;223757;-71
2022/06/19 00:59:26;;;;;;;15.80;2.50;;;15.20;99.90;;;;;;5002111;28;265792;-72
2022/06/19 01:01:53;;;;;;;11.85;1.88;;;15.10;99.90;;;;;;4955030;28;205968;-71
2022/06/19 01:04:28;;;;;;;18.13;2.10;;;15.10;99.90;;;;;;4973060;28;255045;-71
2022/06/19 01:06:54;;;;;;;13.93;2.20;;;15.10;99.90;;;;;;4955687;28;206014;-72
2022/06/19 01:09:21;;;;;;;15.32;1.98;;;15.00;99.90;;;;;;4985385;28;269188;-72
2022/06/19 01:11:47;;;;;;;12.25;1.70;;;15.00;99.90;;;;;;4964411;28;206356;-72
2022/06/19 01:14:18;;;;;;;12.30;1.90;;;15.00;99.90;;;;;;4986476;28;253421;-70
2022/06/19 01:16:44;;;;;;;11.65;1.70;;;15.00;99.90;;;;;;4969987;28;230463;-71
2022/06/19 01:19:18;;;;;;;12.90;2.03;;;14.90;99.90;;;;;;4986091;28;271078;-71
2022/06/19 01:21:50;;;;;;;19.30;2.60;;;14.90;99.90;;;;;;4988685;28;163885;-71
2022/06/19 01:24:38;;;;;;;13.82;2.20;;;14.90;99.90;;;;;;4984059;28;267939;-72
2022/06/19 01:27:08;;;;;;;14.32;2.30;;;14.90;99.90;;;;;;4950395;28;206473;-69
2022/06/19 01:29:35;;;;;;;16.00;2.10;;;14.90;99.90;;;;;;4987292;28;250757;-72
2022/06/19 01:32:07;;;;;;;17.38;2.30;;;14.90;99.90;;;;;;4964739;28;206486;-70
2022/06/19 01:34:38;;;;;;;14.82;2.40;;;14.90;99.90;;;;;;4991034;28;267246;-70
2022/06/19 01:37:20;;;;;;;16.75;2.50;;;14.90;99.90;;;;;;4945987;28;206222;-70
2022/06/19 01:40:17;;;;;;;12.75;2.08;;;14.90;99.90;;;;;;4988504;28;206201;-71
2022/06/19 01:42:43;;;;;;;15.93;2.53;;;14.90;99.90;;;;;;4926600;28;206161;-71
2022/06/19 01:45:10;;;;;;;17.55;2.42;;;14.90;99.90;;;;;;4994218;28;48242;-71
2022/06/19 01:47:36;;;;;;;17.55;2.63;;;14.80;99.90;;;;;;4946577;28;212244;-71
2022/06/19 01:50:07;;;;;;;21.02;2.97;;;14.80;99.90;;;;;;4984929;28;67477;-70
2022/06/19 01:52:33;;;;;;;16.27;2.10;;;14.70;99.90;;;;;;4951878;28;215365;-70
2022/06/19 01:55:14;;;;;;;20.90;2.88;;;14.70;99.90;;;;;;4994715;28;249168;-70
2022/06/19 01:57:50;;;;;;;19.25;2.72;;;14.70;99.90;;;;;;4939857;28;206416;-70
2022/06/19 02:00:21;;;;;;;17.23;2.75;;;14.70;99.90;;;;;;4953640;28;205673;-70
2022/06/19 02:02:55;;;;;;;17.95;2.60;;;14.70;99.90;;;;;;4991317;28;20511;-69
2022/06/19 02:05:22;;;;;;;15.38;2.50;;;14.60;99.90;;;;;;4931093;28;260452;-71
2022/06/19 02:07:48;;;;;;;24.13;2.90;;;14.60;99.90;;;;;;5005630;28;20058;-70
2022/06/19 02:10:15;;;;;;;16.98;2.38;;;14.60;99.90;;;;;;4961726;28;261304;-70
2022/06/19 02:12:41;;;;;;;15.63;2.33;;;14.60;99.90;;;;;;5001279;28;111743;-69
2022/06/19 02:15:10;;;;;;;17.73;2.63;;;14.60;99.90;;;;;;4982048;28;157674;-71
2022/06/19 02:17:42;;;;;;;19.45;2.80;;;14.60;99.90;;;;;;4957866;28;213701;-71
2022/06/19 02:20:10;;;;;;;18.98;2.92;;;14.60;99.90;;;;;;4991134;28;70238;-72
2022/06/19 02:22:36;;;;;;;19.00;2.60;;;14.60;99.90;;;;;;4975626;28;205882;-72
2022/06/19 02:25:03;;;;;;;18.75;2.97;;;14.60;99.90;;;;;;4982131;28;261216;-71
2022/06/19 02:27:34;;;;;;;18.55;2.95;;;14.60;99.90;;;;;;4963856;28;203388;-69
2022/06/19 02:30:01;;;;;;;18.33;2.65;;;14.50;99.90;;;;;;4989476;28;256105;-69
2022/06/19 02:32:34;;;;;;;16.15;2.88;;;14.60;99.90;;;;;;4946035;28;206122;-70
2022/06/19 02:35:01;;;;;;;18.00;2.97;;;14.60;99.90;;;;;;4991942;28;262485;-70
2022/06/19 02:37:32;;;;;;;17.35;2.65;;;14.60;99.90;;;;;;4957916;28;206633;-70
2022/06/19 02:40:07;;;;;;;;;;;14.60;99.90;;;;;;4993481;28;271670;-70
2022/06/19 02:42:44;;;;;;;17.50;2.75;;;14.60;99.90;;;;;;4955706;28;211056;-71
2022/06/19 02:45:23;;;;;;;20.60;2.67;;;14.50;99.90;;;;;;4982950;28;266982;-71
2022/06/19 02:47:51;;;;;;;27.83;4.43;;;14.50;99.90;;;;;;4946020;28;206436;-74
2022/06/19 02:50:32;;;;;;;23.67;3.55;;;14.40;99.90;;;;;;4944354;28;227431;-76
2022/06/19 02:52:58;;;;;;;21.80;3.20;;;14.40;99.90;;;;;;4993630;28;20053;-73
2022/06/19 02:55:25;;;;;;;25.20;3.70;;;14.20;99.90;;;;;;4948292;28;255641;-74
2022/06/19 02:57:51;;;;;;;28.23;3.40;;;14.20;99.90;;;;;;5006677;28;20134;-72
2022/06/19 03:00:24;;;;;;;21.90;3.17;;;14.10;99.90;;;;;;4968272;28;205576;-72
2022/06/19 03:02:55;;;;;;;25.40;3.10;;;14.00;99.90;;;;;;4965330;28;20053;-73
2022/06/19 03:05:25;;;;;;;24.17;3.05;;;13.90;99.90;;;;;;4909008;28;206347;-74
2022/06/19 03:07:51;;;;;;;22.52;3.03;;;13.90;99.90;;;;;;4996970;28;20050;-73
2022/06/19 03:10:17;;;;;;;28.17;3.40;;;13.80;99.90;;;;;;4950737;28;272870;-73
2022/06/19 03:12:44;;;;;;;21.88;2.95;;;13.70;99.90;;;;;;4989079;28;20043;-74
2022/06/19 03:15:11;;;;;;;20.13;3.17;;;13.60;99.90;;;;;;4995154;28;257635;-73
2022/06/19 03:17:38;;;;;;;21.70;3.08;;;13.60;99.90;;;;;;4948343;28;205628;-74
2022/06/19 03:20:05;;;;;;;20.88;3.10;;;13.60;99.90;;;;;;4989558;28;240029;-73
2022/06/19 03:22:31;;;;;;;20.30;3.35;;;13.60;99.90;;;;;;4971346;28;206550;-73
2022/06/19 03:24:57;;;;;;;22.13;2.75;;;13.60;99.90;;;;;;4980785;28;252701;-73
2022/06/19 03:27:24;;;;;;;20.63;3.05;;;13.70;99.90;;;;;;4952346;28;207863;-75
2022/06/19 03:29:50;;;;;;;21.20;2.90;;;13.70;99.90;;;;;;4990041;28;270645;-73
2022/06/19 03:32:16;;;;;;;21.00;3.60;;;13.60;99.90;;;;;;4956378;28;210045;-74
2022/06/19 03:34:42;;;;;;;22.73;3.00;;;13.70;99.90;;;;;;4989055;28;262762;-73
2022/06/19 03:37:09;;;;;;;18.88;2.95;;;13.70;99.90;;;;;;4955249;28;209803;-72
2022/06/19 03:39:35;;;;;;;17.60;2.60;;;13.70;99.90;;;;;;4988924;28;254817;-72
2022/06/19 03:42:02;;;;;;;22.15;2.97;;;13.70;99.90;;;;;;4953805;28;207429;-73
2022/06/19 03:44:29;;;;;;;16.92;2.63;;;13.70;99.90;;;;;;4987099;28;251055;-71
2022/06/19 03:46:55;;;;;;;23.10;3.15;;;13.80;99.90;;;;;;4978669;28;205694;-71
2022/06/19 03:49:21;;;;;;;21.30;2.85;;;13.80;99.90;;;;;;4983703;28;268676;-72
2022/06/19 03:51:47;;;;;;;24.80;3.78;;;13.70;99.90;;;;;;4948046;28;204670;-71
2022/06/19 03:54:13;;;;;;;18.13;2.60;;;13.70;99.90;;;;;;4982495;28;245288;-72
2022/06/19 03:56:40;;;;;;;23.52;3.22;;;13.70;99.90;;;;;;4944716;28;211716;-71
2022/06/19 03:59:08;;;;;;;18.30;3.35;;;13.70;99.90;;;;;;4967160;28;270691;-71
2022/06/19 04:01:39;;;;;;;19.52;2.78;;;13.70;99.90;;;;;;4934938;28;207553;-73
2022/06/19 04:04:05;;;;;;;24.90;3.25;;;13.70;99.90;;;;;;5010018;22;251068;-84
2022/06/19 04:06:37;;;;;;;17.00;2.63;;;13.70;99.90;;;;;;4933495;28;209001;-84
2022/06/19 04:09:10;;;;;;;24.23;3.28;;;13.70;99.90;;;;;;4964407;28;20060;-84
2022/06/19 04:11:37;;;;;;;18.17;2.95;;;13.70;99.90;;;;;;4910531;28;231015;-84
2022/06/19 04:14:04;;;;;;;24.15;3.47;;;13.60;99.90;;;;;;4979836;28;20409;-84
2022/06/19 04:16:34;;;;;;;22.92;3.00;;;13.60;99.90;;;;;;4903908;28;213799;-84
2022/06/19 04:19:03;;;;;;;18.15;3.00;;;13.60;99.90;;;;;;4986571;28;20905;-84
2022/06/19 04:21:38;;;;;;;19.92;2.97;;;13.50;99.90;;;;;;4920048;28;221976;-84
2022/06/19 04:24:09;;;;;;;16.77;3.10;;;13.50;99.90;;;;;;4964557;28;247924;-84
2022/06/19 04:26:37;;;;;;;16.93;2.40;;;13.50;99.90;;;;;;4922830;28;207631;-83
2022/06/19 04:29:05;;;;;;;22.40;2.95;;;13.50;99.90;;;;;;4965836;28;20332;-83
2022/06/19 04:31:35;;;;;;;18.30;2.70;;;13.50;99.90;;;;;;4929477;28;210146;-84
2022/06/19 04:34:02;;;;;;;20.70;2.90;;;13.50;99.90;;;;;;4987908;28;20049;-84
2022/06/19 04:36:30;;;;;;;18.75;2.50;;;13.50;99.90;;;;;;4915898;28;205338;-84
2022/06/19 04:38:57;;;;;;;15.25;2.65;;;13.50;99.90;;;;;;4957844;28;20058;-84
2022/06/19 04:41:36;;;;;;;17.80;2.60;;;13.40;99.90;;;;;;4905271;28;206280;-84
2022/06/19 04:44:05;;;;;;;18.85;2.70;;;13.50;99.90;;;;;;4968915;28;20377;-84
2022/06/19 04:46:31;;;;;;;21.40;2.90;;;13.40;99.90;;;;;;4918308;28;208019;-84
2022/06/19 04:48:57;;;;;;;20.35;2.78;;;13.40;99.90;;;;;;4959407;28;20055;-84
2022/06/19 04:51:24;;;;;;;21.60;3.20;;;13.50;99.90;;;;;;4919173;28;206226;-84
2022/06/19 04:53:53;;;;;;;19.35;3.10;;;13.50;99.90;;;;;;4981294;28;20051;-83
2022/06/19 04:56:20;;;;;;;21.08;2.80;;;13.50;99.90;;;;;;4922970;28;233628;-83
2022/06/19 04:58:47;;;;;;;18.58;2.40;;;13.50;99.90;;;;;;4957998;28;20050;-81
2022/06/19 05:01:31;;;;;;;20.13;2.88;;;13.50;99.90;;;;;;4949317;28;261964;-82
2022/06/19 05:04:03;;;;;;;19.25;2.90;;;13.50;99.90;;;;;;4970178;28;20269;-81
2022/06/19 05:06:30;;;;;;;16.38;2.80;;;13.60;99.90;;;;;;4930322;28;266414;-83
2022/06/19 05:08:57;;;;;;;17.73;2.53;;;13.60;99.90;;;;;;4967510;28;20084;-82
2022/06/19 05:11:25;;;;;;;19.92;3.05;;;13.60;99.90;;;;;;4930953;28;216223;-84
2022/06/19 05:13:51;;;;;;;18.88;2.78;;;13.60;99.90;;;;;;4975955;28;20047;-85
2022/06/19 05:16:22;;;;;;;19.00;2.08;;;13.60;99.90;;;;;;4901843;28;207699;-84
2022/06/19 05:18:50;;;;;;;16.38;2.22;;;13.50;99.90;;;;;;4960315;28;20058;-84
2022/06/19 05:21:17;;;;;;;13.57;1.90;;;13.30;99.90;;;;;;4919862;28;213851;-85
2022/06/19 05:23:45;;;;;;;9.45;1.50;;;13.10;99.90;;;;;;4951993;28;20057;-83
2022/06/19 05:26:21;;;;;;;11.88;1.60;;;13.10;99.90;;;;;;4935003;28;248948;-83
2022/06/19 05:28:49;;;;;;;10.30;1.73;;;13.00;99.90;;;;;;4961058;28;20055;-84
2022/06/19 05:31:16;;;;;;;11.35;1.67;;;12.90;99.90;;;;;;4916159;28;200551;-84
2022/06/19 05:33:44;;;;;;;10.68;1.45;;;12.80;99.90;;;;;;4969979;28;20412;-85
2022/06/19 05:36:11;;;;;;;10.75;1.58;;;12.80;99.90;;;;;;4901611;28;240843;-84
2022/06/19 05:38:37;;;;;;;11.63;1.50;;;12.80;99.90;;;;;;4966937;28;20043;-84
2022/06/19 05:41:03;;;;;;;11.68;1.60;;;12.80;99.90;;;;;;4913348;28;200123;-84
2022/06/19 05:43:31;;;;;;;13.82;1.60;;;12.70;99.90;;;;;;4967299;28;20046;-84
2022/06/19 05:46:01;;;;;;;14.20;1.95;;;12.70;99.90;;;;;;4898327;28;208429;-84
2022/06/19 05:48:29;;;;;;;13.23;2.08;;;12.70;99.90;;;;;;4969563;28;20122;-83
2022/06/19 05:51:02;;;;;;;11.82;1.80;;;12.70;99.90;;;;;;4921336;28;273400;-83
2022/06/19 05:53:31;;;;;;;14.07;1.95;;;12.70;99.90;;;;;;4960612;28;20034;-84
2022/06/19 05:55:57;;;;;;;12.65;1.83;;;12.80;99.90;;;;;;4912726;28;227823;-82
2022/06/19 05:58:24;;;;;;;10.75;2.00;;;12.80;99.90;;;;;;4959123;28;20567;-83
2022/06/19 06:00:50;;;;;;;11.93;1.73;;;12.90;99.90;;;;;;4897248;28;222928;-83
2022/06/19 06:03:19;;;;;;;13.75;1.70;;;12.90;99.90;;;;;;4961664;28;21536;-83
2022/06/19 06:05:46;;;;;;;12.00;1.90;;;12.90;99.90;;;;;;4907998;28;245118;-83
2022/06/19 06:08:13;;;;;;;19.52;2.67;;;13.00;99.90;;;;;;4946905;28;20058;-84
2022/06/19 06:10:40;;;;;;;12.02;1.90;;;13.00;99.90;;;;;;4921140;28;210576;-82
2022/06/19 06:13:07;;;;;;;13.85;1.90;;;13.00;99.90;;;;;;4982295;28;20058;-82
2022/06/19 06:15:33;;;;;;;18.75;2.72;;;13.00;99.90;;;;;;4920352;28;238506;-82
2022/06/19 06:18:01;;;;;;;12.00;2.03;;;13.00;99.90;;;;;;4962960;28;20062;-83
2022/06/19 06:20:30;;;;;;;14.13;2.30;;;13.10;99.90;;;;;;4934944;28;185177;-84
2022/06/19 06:22:57;;;;;;;16.65;2.78;;;13.10;99.90;;;;;;4969486;28;20055;-85
2022/06/19 06:25:23;;;;;;;17.30;2.63;;;13.10;99.90;;;;;;4911000;28;236142;-83
2022/06/19 06:27:50;;;;;;;19.02;2.85;;;13.20;99.90;;;;;;4954004;28;20059;-84
2022/06/19 06:30:17;;;;;;;17.42;2.40;;;13.20;99.90;;;;;;4948957;28;209361;-83
2022/06/19 06:32:43;;;;;;;16.55;2.15;;;13.30;99.90;;;;;;4938496;28;20038;-82
2022/06/19 06:35:10;;;;;;;18.17;2.58;;;13.30;99.90;;;;;;4957758;28;253638;-84
2022/06/19 06:37:36;;;;;;;17.98;2.75;;;13.30;99.90;;;;;;4912844;28;209531;-84
2022/06/19 06:40:07;;;;;;;13.90;2.15;;;13.30;99.90;;;;;;4956266;28;255930;-85
2022/06/19 06:42:34;;;;;;;;;;;13.30;99.90;;;;;;4932412;28;167020;-86
2022/06/19 06:45:01;;;;;;;19.52;2.80;;;13.30;99.90;;;;;;4964259;28;65710;-85
2022/06/19 06:47:30;;;;;;;22.90;2.55;;;13.40;99.90;;;;;;4929724;28;212414;-84
2022/06/19 06:49:56;;;;;;;18.02;2.10;;;13.50;99.90;;;;;;4973496;28;214296;-85
2022/06/19 06:52:45;;;;;;;18.65;2.90;;;13.50;99.90;;;;;;4928292;28;222448;-85
2022/06/19 06:55:12;;;;;;;22.60;2.72;;;13.60;99.90;;;;;;4884225;28;3015466;-84
2022/06/19 06:57:50;;;;;;;25.45;2.90;;;13.70;99.90;;;;;;4923239;28;169508;-86
2022/06/19 07:00:36;;;;;;;22.90;3.20;;;13.80;99.90;;;;;;4924132;28;207562;-85
2022/06/19 07:03:06;;;;;;;17.58;2.55;;;13.90;99.90;;;;;;4968991;28;20508;-84
2022/06/19 07:05:38;;;;;;;15.80;2.42;;;13.90;99.90;;;;;;4902135;28;245531;-85
2022/06/19 07:08:05;;;;;;;21.50;2.72;;;14.00;99.90;;;;;;4949184;28;20038;-84
2022/06/19 07:10:34;;;;;;;24.40;2.97;;;14.10;99.90;;;;;;4896936;28;205848;-85
2022/06/19 07:13:00;;;;;;;23.08;2.92;;;14.10;99.90;;;;;;4961165;28;20058;-86
2022/06/19 07:15:32;;;;;;;22.70;3.63;;;14.20;99.90;;;;;;4928054;28;217219;-87
2022/06/19 07:17:58;;;;;;;22.10;2.72;;;14.20;99.90;;;;;;4994219;28;20059;-84
2022/06/19 07:20:25;;;;;;;19.77;2.60;;;14.30;99.90;;;;;;4944066;28;230393;-81
2022/06/19 07:23:35;;;;;;;19.08;2.63;;;14.20;99.90;;;;;;4973513;28;20049;-87
2022/06/19 07:26:01;;;;;;;18.40;2.80;;;14.20;99.90;;;;;;4841162;23;1531220;-70
2022/06/19 07:28:28;;;;;;;21.23;2.70;;;14.10;99.90;;;;;;4930959;28;20051;-69
2022/06/19 07:30:54;;;;;;;17.85;2.60;;;14.20;99.90;;;;;;4892616;28;252782;-70
2022/06/19 07:33:20;;;;;;;20.33;2.78;;;14.30;99.90;;;;;;4938229;28;20070;-70
2022/06/19 07:35:46;;;;;;;19.05;2.65;;;14.30;99.90;;;;;;4875085;28;272818;-70
2022/06/19 07:38:12;;;;;;;19.45;2.50;;;14.30;99.90;;;;;;4947041;28;20523;-70
2022/06/19 07:40:39;;;;;;;17.70;2.92;;;14.30;99.90;;;;;;4892246;28;261580;-71
2022/06/19 07:43:05;;;;;;;16.00;2.42;;;14.30;99.90;;;;;;4949868;28;20054;-71
2022/06/19 07:45:31;;;;;;;15.10;2.40;;;14.30;99.90;;;;;;4888457;28;209654;-71
2022/06/19 07:50:42;;;;;;;16.13;2.50;;;14.40;99.90;;;;;;4889105;28;250860;-72
2022/06/19 07:53:08;;;;;;;16.85;2.60;;;14.40;99.90;;;;;;4948932;28;20051;-72
2022/06/19 07:55:35;;;;;;;15.88;2.25;;;14.40;99.90;;;;;;4893138;28;129266;-72
2022/06/19 07:58:01;;;;;;;17.90;2.58;;;14.50;99.90;;;;;;4954013;28;20058;-72
2022/06/19 08:00:33;;;;;;;21.02;2.63;;;14.50;99.90;;;;;;4887564;28;206171;-72
2022/06/19 08:03:00;;;;;;;21.23;2.55;;;14.50;99.90;;;;;;4936499;28;20062;-72
2022/06/19 08:05:29;;;;;;;21.57;3.37;;;14.50;99.90;;;;;;4858571;28;261246;-72
2022/06/19 08:07:57;;;;;;;17.02;2.40;;;14.50;99.90;;;;;;4926788;29;20043;-72
2022/06/19 08:10:27;;;;;;;20.48;2.92;;;14.40;99.90;;;;;;4881196;28;249999;-72
2022/06/19 08:12:54;;;;;;;20.42;3.05;;;14.40;99.90;;;;;;4959078;28;20062;-73
2022/06/19 08:15:21;;;;;;;21.83;3.00;;;14.40;99.90;;;;;;4892843;28;264089;-72
2022/06/19 08:17:48;;;;;;;20.65;2.72;;;14.40;99.90;;;;;;4935607;29;20461;-72
2022/06/19 08:20:16;;;;;;;22.60;3.35;;;14.30;99.90;;;;;;4913684;28;141228;-72
2022/06/19 08:22:42;;;;;;;19.17;2.70;;;14.40;99.90;;;;;;4932594;28;210157;-72
2022/06/19 08:25:11;;;;;;;18.33;2.92;;;14.40;99.90;;;;;;4935888;28;20043;-72
2022/06/19 08:27:42;;;;;;;21.48;2.90;;;14.50;99.90;;;;;;4882316;28;206326;-73
2022/06/19 08:30:19;;;;;;;22.23;2.72;;;14.50;99.90;;;;;;4933451;28;111899;-72
2022/06/19 08:32:45;;;;;;;17.33;2.70;;;14.50;99.90;;;;;;4877869;28;208454;-73
2022/06/19 08:35:11;;;;;;;20.73;3.20;;;14.60;99.90;;;;;;4932168;28;115508;-73
2022/06/19 08:37:39;;;;;;;17.40;2.42;;;14.60;99.90;;;;;;4877615;28;208523;-73
2022/06/19 08:40:25;;;;;;;16.40;2.78;;;14.70;99.90;;;;;;4931667;28;184572;-73
2022/06/19 08:43:22;;;;;;;25.70;2.78;;;14.90;99.90;;;;;;4907795;28;206007;-72
2022/06/19 08:46:03;;;;;;;18.77;2.60;;;15.00;99.90;;;;;;4903674;28;198157;-72
2022/06/19 08:48:45;;;;;;;;;;;15.20;99.90;;;;;;4939757;28;20043;-72
2022/06/19 08:51:28;;;;;;;17.30;2.80;;;15.20;99.90;;;;;;4893861;28;214723;-73
2022/06/19 08:54:12;;;;;;;16.90;3.05;;;15.10;99.90;;;;;;4934609;28;20067;-72
2022/06/19 08:56:53;;;;;;;15.23;3.15;;;15.30;99.90;;;;;;4890216;28;205454;-72
2022/06/19 08:59:45;;;;;;;16.43;3.23;;;15.50;99.90;;;;;;4925581;28;249112;-71
2022/06/19 09:02:49;;;;;;;18.52;2.60;;;15.50;99.90;;;;;;4843340;29;227146;-72
2022/06/19 09:05:36;;;;;;;13.18;2.35;;;15.60;99.90;;;;;;4760518;29;209593;-73
2022/06/19 09:08:24;;;;;;;16.90;2.63;;;15.60;99.90;;;;;;4811318;29;206973;-72
2022/06/19 09:11:19;;;;;;;13.60;2.50;;;15.70;99.90;;;;;;4783659;29;80089;-72
2022/06/19 09:13:48;;;;;;;13.43;2.60;;;15.60;99.90;;;;;;4817879;29;20073;-72
2022/06/19 09:16:44;;;;;;;18.13;2.90;;;15.60;99.90;;;;;;4764955;29;209622;-73
2022/06/19 09:19:21;;;;;;;17.77;2.67;;;15.70;99.90;;;;;;4809942;29;244212;-73
2022/06/19 09:22:11;;;;;;;15.63;2.42;;;15.70;99.90;;;;;;4763229;29;206791;-73
2022/06/19 09:25:07;;;;;;;18.60;2.83;;;15.80;99.90;;;;;;4813131;29;238019;-72
2022/06/19 09:27:54;;;;;;;17.10;2.63;;;15.70;99.90;;;;;;4785682;29;205673;-72
2022/06/19 09:30:26;;;;;;;11.73;2.08;;;15.60;99.90;;;;;;4759517;29;207759;-72
2022/06/19 09:33:03;;;;;;;14.18;2.20;;;15.70;99.90;;;;;;4829677;29;20077;-72
2022/06/19 09:35:43;;;;;;;16.38;3.15;;;15.80;99.90;;;;;;4782514;29;98766;-72
2022/06/19 09:38:19;;;;;;;15.23;2.40;;;15.90;99.90;;;;;;4853713;29;20049;-72
2022/06/19 09:40:51;;;;;;;16.80;2.38;;;16.10;99.90;;;;;;4818888;29;222020;-70
2022/06/19 09:43:24;;;;;;;12.05;2.15;;;16.20;99.90;;;;;;4942912;28;20061;-72
2022/06/19 09:46:00;;;;;;;16.17;2.20;;;16.30;99.90;;;;;;4885652;28;207117;-72
2022/06/19 09:48:32;;;;;;;12.75;2.15;;;16.40;99.90;;;;;;4952966;28;20059;-72
2022/06/19 09:51:00;;;;;;;13.80;2.00;;;16.70;99.90;;;;;;4900296;28;254955;-72
2022/06/19 09:53:57;;;;;;;15.13;2.40;;;16.80;99.90;;;;;;4943130;28;20059;-72
2022/06/19 09:56:53;;;;;;;13.85;2.35;;;17.00;99.90;;;;;;4891221;28;205836;-71
2022/06/19 09:59:19;;;;;;;14.55;1.90;;;17.20;99.90;;;;;;4930213;28;272833;-71
2022/06/19 10:01:47;;;;;;;13.43;2.22;;;17.30;99.90;;;;;;4911252;28;83261;-73
2022/06/19 10:04:26;;;;;;;13.68;2.58;;;17.40;99.90;;;;;;4921457;28;263348;-72
2022/06/19 10:07:00;;;;;;;13.48;2.10;;;17.30;99.90;;;;;;4914662;28;209954;-72
2022/06/19 10:09:39;;;;;;;13.10;1.95;;;17.30;99.90;;;;;;4928607;28;262470;-71
2022/06/19 10:12:13;;;;;;;12.85;1.98;;;17.20;99.90;;;;;;4911156;28;205650;-71
2022/06/19 10:14:43;;;;;;;15.50;1.90;;;17.10;99.90;;;;;;4929565;28;261140;-73
2022/06/19 10:17:23;;;;;;;10.47;2.03;;;17.10;99.90;;;;;;4916272;28;206464;-70
2022/06/19 10:19:58;;;;;;;12.37;2.00;;;17.00;99.90;;;;;;4935265;28;252835;-71
2022/06/19 10:22:39;;;;;;;10.48;1.88;;;17.00;99.90;;;;;;4898442;28;210407;-71
2022/06/19 10:25:14;;;;;;;13.27;1.95;;;16.80;99.90;;;;;;4934436;28;109366;-71
2022/06/19 10:28:02;;;;;;;13.52;1.80;;;16.70;99.90;;;;;;4897337;28;209858;-73
2022/06/19 10:31:06;;;;;;;10.13;1.50;;;16.60;99.90;;;;;;4887479;28;233745;-70
2022/06/19 10:33:38;;;;;;;12.60;1.88;;;16.70;99.90;;;;;;4949204;28;20057;-71
2022/06/19 10:36:13;;;;;;;8.52;1.73;;;16.60;99.90;;;;;;4886313;28;253964;-71
2022/06/19 10:38:47;;;;;;;11.77;1.80;;;16.70;99.90;;;;;;4952248;28;20070;-70
2022/06/19 10:44:28;;;;;;;12.27;1.63;;;16.60;99.90;;;;;;4923700;28;263183;-71
2022/06/19 10:47:20;;;;;;;10.50;1.80;;;16.50;99.90;;;;;;4912675;28;206166;-72
2022/06/19 10:50:07;;;;;;;8.80;1.50;;;16.60;99.90;;;;;;4944818;28;254333;-71
2022/06/19 10:53:00;;;;;;;10.93;1.90;;;16.70;99.90;;;;;;4922285;28;106032;-71
2022/06/19 10:55:44;;;;;;;11.70;1.67;;;16.80;99.90;;;;;;4886759;28;269459;-72
2022/06/19 10:58:21;;;;;;;11.00;1.63;;;16.70;99.90;;;;;;4937215;28;20066;-72
2022/06/19 11:00:57;;;;;;;7.40;1.40;;;16.80;99.90;;;;;;4881859;28;208602;-72
2022/06/19 11:06:38;;;;;;;11.25;1.63;;;16.90;99.90;;;;;;4871291;28;203545;-73
2022/06/19 11:09:13;;;;;;;11.07;1.70;;;17.20;99.90;;;;;;4931937;28;303716;-69
2022/06/19 11:11:42;;;;;;;11.85;1.75;;;17.10;99.90;;;;;;4881708;28;216353;-71
2022/06/19 11:14:10;;;;;;;10.35;1.50;;;17.00;99.90;;;;;;4920608;28;262349;-71
2022/06/19 11:17:03;;;;;;;9.43;1.52;;;17.00;99.90;;;;;;4923447;28;109368;-71
2022/06/19 11:19:42;;;;;;;9.85;1.58;;;17.10;99.90;;;;;;4931888;28;164190;-71
2022/06/19 11:22:30;;;;;;;9.95;1.50;;;17.00;99.90;;;;;;4896813;28;214700;-71
2022/06/19 11:25:18;;;;;;;10.48;1.65;;;17.00;99.90;;;;;;4934792;28;253065;-71
2022/06/19 11:27:52;;;;;;;8.55;1.45;;;16.80;99.90;;;;;;4906272;28;89869;-71
2022/06/19 11:30:53;;;;;;;9.98;1.42;;;16.70;99.90;;;;;;4896904;28;257636;-71
2022/06/19 11:33:40;;;;;;;11.65;1.48;;;16.80;99.90;;;;;;4942305;28;20055;-71
2022/06/19 11:36:12;;;;;;;8.98;1.38;;;16.80;99.90;;;;;;4896284;28;249948;-72
2022/06/19 11:38:44;;;;;;;8.50;1.40;;;16.70;99.90;;;;;;4946119;28;20047;-71
2022/06/19 11:41:33;;;;;;;9.50;1.23;;;16.70;99.90;;;;;;4902312;28;260011;-71
2022/06/19 11:44:02;;;;;;;9.05;1.40;;;16.80;99.90;;;;;;4925850;28;20134;-73
2022/06/19 11:46:30;;;;;;;8.70;1.30;;;16.80;99.90;;;;;;4896669;28;264329;-71
2022/06/19 11:49:28;;;;;;;10.95;1.45;;;16.90;99.90;;;;;;4942105;28;20159;-71
2022/06/19 11:51:58;;;;;;;8.40;1.42;;;17.00;99.90;;;;;;4865417;28;205923;-73
2022/06/19 11:54:31;;;;;;;8.17;2.40;;;17.00;99.90;;;;;;4926469;28;258004;-72
2022/06/19 11:56:58;;;;;;;34.92;13.77;;;17.00;99.90;;;;;;4866941;28;203490;-71
2022/06/19 11:59:45;;;;;;;55.20;26.48;;;17.00;99.90;;;;;;4930147;28;257594;-71
2022/06/19 12:02:22;;;;;;;10.52;2.90;;;17.10;99.90;;;;;;4895154;28;206841;-71
2022/06/19 12:04:54;;;;;;;12.45;4.60;;;17.20;99.90;;;;;;4919587;28;141707;-72
2022/06/19 12:07:23;;;;;;;14.00;5.35;;;17.20;99.90;;;;;;4915486;28;180349;-72
2022/06/19 12:10:00;;;;;;;12.13;4.43;;;17.20;99.90;;;;;;4929330;28;271475;-71
2022/06/19 12:12:28;;;;;;;16.45;6.43;;;17.10;99.90;;;;;;4894421;28;206629;-73
2022/06/19 12:14:57;;;;;;;14.45;4.78;;;17.10;99.90;;;;;;4931653;28;259863;-71
2022/06/19 12:17:30;;;;;;;9.27;2.65;;;17.00;99.90;;;;;;4889481;28;211521;-71
2022/06/19 12:20:04;;;;;;;12.55;4.20;;;17.10;99.90;;;;;;4937313;28;258818;-71
2022/06/19 12:22:57;;;;;;;8.02;1.90;;;17.10;99.90;;;;;;4912449;28;225415;-71
2022/06/19 12:25:31;;;;;;;6.85;1.45;;;17.30;99.90;;;;;;4891071;28;204501;-71
2022/06/19 12:28:25;;;;;;;8.90;1.90;;;17.50;99.90;;;;;;4951098;28;20055;-74
2022/06/19 12:30:57;;;;;;;6.65;1.20;;;17.80;99.90;;;;;;4872687;28;214272;-71
2022/06/19 12:33:35;;;;;;;9.40;1.75;;;17.80;99.90;;;;;;4934965;28;20527;-73
2022/06/19 12:36:02;;;;;;;9.52;1.40;;;17.90;99.90;;;;;;4884917;28;249016;-71
2022/06/19 12:38:34;;;;;;;8.70;1.30;;;17.90;99.90;;;;;;4937419;28;20054;-71
2022/06/19 12:41:00;;;;;;;9.90;1.63;;;17.80;99.90;;;;;;4881868;28;242703;-71
2022/06/19 12:43:30;;;;;;;7.53;1.38;;;17.80;99.90;;;;;;4937380;28;20058;-71
2022/06/19 12:45:58;;;;;;;7.82;1.42;;;17.90;99.90;;;;;;4887698;28;263755;-72
2022/06/19 12:48:50;;;;;;;9.00;1.65;;;18.10;99.90;;;;;;4941490;28;20055;-71
2022/06/19 12:51:34;;;;;;;11.00;1.33;;;18.20;99.90;;;;;;4889597;28;251884;-71
2022/06/19 12:54:00;;;;;;;11.73;1.83;;;18.40;99.90;;;;;;4941092;28;20528;-73
2022/06/19 12:56:47;;;;;;;10.70;1.52;;;18.30;99.90;;;;;;4868539;28;220240;-71
2022/06/19 12:59:25;;;;;;;9.77;1.58;;;18.10;99.90;;;;;;4905090;28;242426;-72
2022/06/19 13:02:11;;;;;;;8.27;1.40;;;17.80;99.90;;;;;;4896040;28;205879;-72
2022/06/19 13:04:43;;;;;;;7.50;1.30;;;17.70;99.90;;;;;;4908450;28;216060;-73
2022/06/19 13:07:21;;;;;;;9.13;1.30;;;17.70;99.90;;;;;;4911421;28;211376;-72